Terminal Aerodrome Forecast
Issued by NWS

Home | Current Version | Previous Version | Text Only | Print | Product List | Glossary On
Versions: 1 2 3 4 5 6 7 8 9 10 11 12 13 14 15 16 17
000
FTUS45 KRIW 260538
TAFJAC
TAF
KJAC 260538Z 2606/2706 VRB05KT P6SM VCSH BKN015 OVC030
     FM260700 VRB06KT P6SM SCT025 BKN040
     FM261200 20006KT P6SM VCSH BKN030
     FM262000 21011KT 5SM -SHRASN SCT015 BKN025 OVC035
     FM270100 22012KT 2SM -SHSN OVC015
      AMD LTD TO CLD VIS AND WIND=

USA.gov is the U.S. government's official web portal to all federal, state and local government web resources and services.